createdAt,value
2018-09-17T00:02:17.297Z,4.07
2018-09-17T00:04:49.981Z,4.73
2018-09-17T00:07:22.435Z,4.80
2018-09-17T00:09:56.462Z,5.47
2018-09-17T00:12:29.084Z,4.97
2018-09-17T00:15:04.530Z,5.00
2018-09-17T00:17:39.512Z,4.70
2018-09-17T00:20:12.137Z,5.20
2018-09-17T00:22:44.695Z,4.60
2018-09-17T00:25:17.136Z,4.17
2018-09-17T00:27:49.606Z,5.90
2018-09-17T00:30:22.699Z,5.57
2018-09-17T00:32:55.177Z,5.30
2018-09-17T00:35:28.012Z,4.83
2018-09-17T00:38:00.960Z,5.77
2018-09-17T00:40:33.485Z,5.37
2018-09-17T00:43:06.100Z,4.97
2018-09-17T00:45:39.633Z,6.43
2018-09-17T00:48:12.512Z,6.57
2018-09-17T00:50:45.116Z,7.07
2018-09-17T00:53:20.107Z,6.73
2018-09-17T00:55:52.728Z,6.90
2018-09-17T00:58:25.256Z,5.93
2018-09-17T01:00:58.390Z,5.93
2018-09-17T01:03:30.975Z,6.17
2018-09-17T01:06:03.546Z,5.30
2018-09-17T01:08:37.202Z,6.53
2018-09-17T01:11:09.879Z,5.93
2018-09-17T01:13:42.456Z,5.90
2018-09-17T01:16:15.565Z,5.37
2018-09-17T01:18:48.605Z,4.90
2018-09-17T01:21:21.561Z,6.60
2018-09-17T01:23:56.739Z,6.18
2018-09-17T01:26:29.788Z,6.60
2018-09-17T01:29:03.224Z,6.80
2018-09-17T01:31:37.583Z,7.37
2018-09-17T01:34:10.421Z,5.73
2018-09-17T01:36:42.966Z,6.10
2018-09-17T01:39:15.936Z,5.93
2018-09-17T01:41:48.526Z,6.47
2018-09-17T01:44:21.086Z,5.40
2018-09-17T01:46:54.292Z,5.40
2018-09-17T01:49:27.092Z,5.87
2018-09-17T01:51:59.648Z,8.60
2018-09-17T01:54:33.528Z,6.23
2018-09-17T01:57:05.885Z,5.63
2018-09-17T01:59:38.422Z,5.63
2018-09-17T02:02:11.399Z,6.73
2018-09-17T02:04:44.168Z,7.30
2018-09-17T02:07:16.711Z,7.20
2018-09-17T02:09:49.468Z,6.90
2018-09-17T02:12:22.061Z,7.73
2018-09-17T02:14:54.461Z,8.37
2018-09-17T02:17:27.597Z,7.63
2018-09-17T02:20:00.101Z,6.97
2018-09-17T02:22:32.591Z,7.60
2018-09-17T02:25:06.708Z,8.57
2018-09-17T02:27:39.537Z,6.27
2018-09-17T02:30:13.535Z,8.03
2018-09-17T02:32:46.562Z,8.20
2018-09-17T02:35:19.101Z,7.60
2018-09-17T02:37:51.665Z,8.33
2018-09-17T02:40:24.622Z,6.97
2018-09-17T02:42:57.519Z,6.70
2018-09-17T02:45:30.006Z,8.95
2018-09-17T02:48:04.100Z,8.27
2018-09-17T02:50:37.048Z,8.10
2018-09-17T02:53:09.544Z,6.90
2018-09-17T02:55:42.420Z,7.93
2018-09-17T02:58:14.880Z,8.17
2018-09-17T03:00:47.423Z,7.57
2018-09-17T03:03:21.844Z,8.60
2018-09-17T03:05:55.272Z,8.23
2018-09-17T03:08:27.822Z,7.43
2018-09-17T03:11:00.851Z,7.57
2018-09-17T03:13:33.336Z,8.30
2018-09-17T03:16:05.875Z,9.77
2018-09-17T03:18:56.013Z,8.83
2018-09-17T03:21:28.985Z,9.73
2018-09-17T03:24:01.531Z,10.63
2018-09-17T03:26:34.459Z,11.57
2018-09-17T03:29:07.203Z,11.20
2018-09-17T03:31:42.237Z,9.47
2018-09-17T03:34:16.173Z,9.53
2018-09-17T03:36:48.832Z,9.53
2018-09-17T03:39:21.403Z,8.53
2018-09-17T03:41:54.452Z,8.03
2018-09-17T03:44:27.329Z,9.63
2018-09-17T03:46:59.961Z,9.17
2018-09-17T03:49:32.755Z,11.87
2018-09-17T03:52:05.763Z,11.83
2018-09-17T03:54:38.509Z,10.80
2018-09-17T03:57:11.137Z,9.30
2018-09-17T03:59:44.157Z,10.35
2018-09-17T04:02:17.093Z,11.55
2018-09-17T04:04:49.835Z,9.85
2018-09-17T04:07:22.846Z,11.43
2018-09-17T04:09:55.398Z,9.57
2018-09-17T04:12:28.256Z,9.23
2018-09-17T04:15:00.942Z,8.67
2018-09-17T04:17:34.692Z,8.57
2018-09-17T04:20:08.104Z,9.77
2018-09-17T04:22:41.911Z,8.70
2018-09-17T04:25:15.155Z,10.53
2018-09-17T04:27:47.748Z,11.03
2018-09-17T04:30:20.327Z,10.73
2018-09-17T04:32:54.407Z,10.43
2018-09-17T04:35:26.758Z,14.90
2018-09-17T04:37:59.177Z,9.37
2018-09-17T04:40:33.037Z,8.40
2018-09-17T04:43:05.775Z,8.37
2018-09-17T04:45:38.453Z,11.07
2018-09-17T04:48:11.259Z,8.63
2018-09-17T04:50:44.022Z,7.90
2018-09-17T04:53:16.567Z,8.27
2018-09-17T04:55:51.017Z,8.70
2018-09-17T04:58:23.632Z,9.03
2018-09-17T05:00:56.242Z,9.10
2018-09-17T05:03:29.142Z,10.43
2018-09-17T05:06:01.824Z,12.65
2018-09-17T05:08:35.851Z,10.20
2018-09-17T05:11:08.568Z,11.65
2018-09-17T05:13:41.091Z,10.27
2018-09-17T05:16:14.645Z,11.93
2018-09-17T05:18:47.923Z,11.97
2018-09-17T05:21:20.935Z,10.40
2018-09-17T05:23:53.377Z,11.97
2018-09-17T05:26:26.895Z,12.50
2018-09-17T05:28:59.435Z,12.37
2018-09-17T05:31:32.492Z,10.87
2018-09-17T05:34:07.141Z,11.87
2018-09-17T05:36:40.040Z,10.60
2018-09-17T05:39:15.034Z,9.43
2018-09-17T05:41:49.116Z,8.90
2018-09-17T05:44:21.681Z,8.00
2018-09-17T05:46:55.124Z,7.57
2018-09-17T05:49:29.112Z,7.80
2018-09-17T05:52:02.647Z,8.75
2018-09-17T05:54:35.387Z,8.10
2018-09-17T05:57:08.868Z,7.93
2018-09-17T05:59:43.797Z,8.77
2018-09-17T06:02:17.476Z,7.27
2018-09-17T06:04:50.959Z,7.77
2018-09-17T06:07:24.234Z,8.48
2018-09-17T06:09:57.409Z,9.33
2018-09-17T06:12:30.627Z,8.70
2018-09-17T06:15:05.552Z,10.40
2018-09-17T06:17:38.649Z,11.40
2018-09-17T06:20:11.187Z,9.82
2018-09-17T06:22:45.212Z,10.60
2018-09-17T06:25:17.771Z,10.47
2018-09-17T06:27:52.561Z,10.13
2018-09-17T06:30:25.605Z,11.30
2018-09-17T06:32:58.712Z,11.30
2018-09-17T06:35:32.191Z,10.03
2018-09-17T06:38:05.370Z,9.83
2018-09-17T06:40:37.951Z,10.23
2018-09-17T06:43:11.887Z,14.67
2018-09-17T06:45:44.767Z,13.50
2018-09-17T06:48:18.086Z,10.33
2018-09-17T06:50:53.201Z,9.63
2018-09-17T06:53:26.750Z,7.50
2018-09-17T06:55:59.318Z,9.15
2018-09-17T06:58:31.960Z,9.57
2018-09-17T07:01:05.894Z,8.97
2018-09-17T07:03:39.385Z,9.27
2018-09-17T07:06:13.948Z,9.67
2018-09-17T07:08:49.248Z,8.73
2018-09-17T07:11:25.613Z,7.63
2018-09-17T07:13:58.193Z,8.73
2018-09-17T07:16:31.036Z,7.80
2018-09-17T07:19:03.805Z,8.33
2018-09-17T07:21:37.227Z,8.30
2018-09-17T07:24:11.128Z,7.03
2018-09-17T07:26:45.375Z,6.03
2018-09-17T07:29:21.001Z,6.20
2018-09-17T07:31:56.836Z,5.37
2018-09-17T07:34:29.402Z,5.60
2018-09-17T07:37:02.025Z,5.17
2018-09-17T07:39:34.988Z,5.27
2018-09-17T07:42:07.504Z,5.30
2018-09-17T07:44:40.937Z,5.47
2018-09-17T07:47:14.348Z,5.20
2018-09-17T07:49:50.068Z,5.80
2018-09-17T07:52:38.444Z,5.50
2018-09-17T07:55:13.940Z,5.87
2018-09-17T07:57:46.846Z,4.80
2018-09-17T08:00:20.304Z,5.23
2018-09-17T08:02:53.682Z,5.10
2018-09-17T08:05:27.445Z,4.97
2018-09-17T08:08:00.521Z,4.82
2018-09-17T08:10:34.377Z,5.00
2018-09-17T08:13:08.288Z,4.70
2018-09-17T08:15:41.369Z,4.00
2018-09-17T08:18:14.831Z,5.03
2018-09-17T08:20:48.434Z,4.77
2018-09-17T08:23:32.168Z,3.93
2018-09-17T08:26:08.414Z,4.17
2018-09-17T08:28:42.395Z,4.50
2018-09-17T08:31:16.681Z,4.27
2018-09-17T08:33:52.824Z,4.80
2018-09-17T08:36:28.062Z,4.10
2018-09-17T08:39:01.030Z,5.47
2018-09-17T08:41:33.720Z,5.13
2018-09-17T08:44:11.592Z,5.40
2018-09-17T08:46:46.873Z,4.80
2018-09-17T08:49:22.592Z,4.80
2018-09-17T08:51:59.847Z,4.30
2018-09-17T08:54:42.352Z,4.57
2018-09-17T08:57:23.294Z,4.60
2018-09-17T09:00:04.448Z,4.80
2018-09-17T09:02:43.970Z,4.33
2018-09-17T09:05:23.297Z,4.17
2018-09-17T09:08:06.419Z,4.40
2018-09-17T09:11:12.286Z,4.30
2018-09-17T09:14:07.384Z,4.30
2018-09-17T09:16:47.993Z,4.00
2018-09-17T09:19:21.236Z,4.60
2018-09-17T09:21:55.228Z,4.30
2018-09-17T09:24:30.000Z,3.90
2018-09-17T09:27:16.063Z,3.27
2018-09-17T09:29:51.080Z,3.67
2018-09-17T09:32:27.421Z,3.53
2018-09-17T09:35:10.170Z,4.10
2018-09-17T09:37:46.834Z,3.97
2018-09-17T09:40:34.690Z,4.10
2018-09-17T09:43:14.944Z,3.37
2018-09-17T09:45:49.360Z,2.90
2018-09-17T09:48:32.289Z,3.10
2018-09-17T09:51:22.628Z,2.90
2018-09-17T09:53:58.582Z,2.83
2018-09-17T09:56:33.668Z,3.10
2018-09-17T09:59:15.371Z,3.70
2018-09-17T10:02:16.768Z,2.90
2018-09-17T10:04:50.728Z,3.40
2018-09-17T10:07:29.802Z,3.63
2018-09-17T10:10:11.970Z,3.20
2018-09-17T10:12:52.764Z,3.73
2018-09-17T10:15:47.796Z,3.00
2018-09-17T10:18:27.286Z,3.20
2018-09-17T10:21:00.568Z,3.40
2018-09-17T10:23:36.654Z,3.05
2018-09-17T10:26:12.964Z,2.97
2018-09-17T10:28:45.747Z,3.22
2018-09-17T10:31:26.406Z,2.90
2018-09-17T10:34:10.211Z,2.77
2018-09-17T10:36:49.976Z,2.43
2018-09-17T10:39:26.472Z,2.97
2018-09-17T10:42:04.543Z,2.93
2018-09-17T10:44:39.744Z,2.23
2018-09-17T10:47:14.477Z,2.03
2018-09-17T10:49:50.573Z,2.80
2018-09-17T10:52:28.084Z,2.57
2018-09-17T10:55:12.094Z,2.30
2018-09-17T10:57:46.676Z,2.43
2018-09-17T11:00:23.401Z,2.67
2018-09-17T11:03:00.831Z,2.27
2018-09-17T11:05:39.390Z,1.90
2018-09-17T11:08:15.213Z,2.13
2018-09-17T11:10:49.199Z,1.97
2018-09-17T11:13:25.229Z,2.50
2018-09-17T11:16:00.152Z,2.03
2018-09-17T11:18:34.535Z,2.20
2018-09-17T11:21:10.751Z,1.90
2018-09-17T11:23:45.096Z,1.80
2018-09-17T11:26:18.062Z,1.63
2018-09-17T11:28:54.721Z,2.03
2018-09-17T11:31:32.720Z,2.00
2018-09-17T11:34:08.759Z,2.00
2018-09-17T11:36:42.622Z,1.80
2018-09-17T11:39:20.068Z,2.20
2018-09-17T11:41:52.691Z,1.98
2018-09-17T11:44:25.277Z,1.70
2018-09-17T11:46:57.836Z,1.80
2018-09-17T11:49:36.307Z,1.70
2018-09-17T11:52:09.999Z,2.00
2018-09-17T11:54:43.672Z,2.00
2018-09-17T11:57:17.604Z,2.07
2018-09-17T11:59:51.136Z,2.00
2018-09-17T12:02:29.172Z,2.00
2018-09-17T12:05:58.393Z,1.80
2018-09-17T12:08:32.956Z,1.87
2018-09-17T12:11:06.140Z,1.77
2018-09-17T12:13:39.185Z,2.00
2018-09-17T12:16:12.568Z,1.80
2018-09-17T12:18:45.132Z,1.73
2018-09-17T12:21:21.078Z,1.70
2018-09-17T12:23:54.106Z,1.80
2018-09-17T12:26:27.318Z,1.70
2018-09-17T12:29:01.596Z,1.80
2018-09-17T12:31:35.524Z,2.03
2018-09-17T12:34:11.009Z,1.70
2018-09-17T12:36:44.072Z,1.60
2018-09-17T12:39:16.617Z,1.60
2018-09-17T12:41:49.769Z,1.73
2018-09-17T12:44:24.980Z,1.87
2018-09-17T12:47:01.297Z,1.40
2018-09-17T12:49:34.516Z,1.77
2018-09-17T12:52:09.868Z,2.03
2018-09-17T12:54:42.534Z,1.77
2018-09-17T12:57:17.770Z,1.90
2018-09-17T12:59:54.684Z,1.40
2018-09-17T13:02:29.922Z,1.57
2018-09-17T13:05:06.151Z,1.60
2018-09-17T13:07:39.450Z,1.40
2018-09-17T13:10:16.228Z,1.50
2018-09-17T13:12:49.424Z,1.77
2018-09-17T13:15:21.982Z,1.70
2018-09-17T13:17:54.696Z,1.83
2018-09-17T13:20:31.124Z,1.70
2018-09-17T13:23:05.673Z,1.47
2018-09-17T13:25:40.492Z,1.23
2018-09-17T13:28:15.404Z,1.70
2018-09-17T13:30:49.667Z,1.80
2018-09-17T13:33:23.339Z,1.63
2018-09-17T13:35:56.648Z,1.40
2018-09-17T13:38:31.936Z,1.77
2018-09-17T13:41:05.100Z,1.70
2018-09-17T13:43:40.538Z,1.83
2018-09-17T13:46:14.824Z,1.47
2018-09-17T13:48:47.527Z,1.50
2018-09-17T13:51:20.096Z,1.60
2018-09-17T13:53:53.707Z,1.70
2018-09-17T13:56:30.443Z,1.67
2018-09-17T13:59:05.284Z,1.60
2018-09-17T14:01:41.067Z,1.77
2018-09-17T14:04:16.787Z,1.50
2018-09-17T14:06:49.778Z,1.23
2018-09-17T14:09:24.901Z,1.83
2018-09-17T14:11:59.086Z,1.97
2018-09-17T14:14:33.825Z,1.70
2018-09-17T14:17:14.762Z,1.92
2018-09-17T14:19:50.672Z,1.83
2018-09-17T14:22:34.734Z,1.77
2018-09-17T14:25:09.491Z,1.90
2018-09-17T14:27:44.384Z,1.97
2018-09-17T14:30:19.563Z,1.77
2018-09-17T14:33:04.683Z,1.67
2018-09-17T14:36:03.592Z,1.63
2018-09-17T14:39:08.836Z,1.80
2018-09-17T14:41:49.504Z,1.90
2018-09-17T14:44:24.139Z,1.97
2018-09-17T14:47:00.015Z,2.23
2018-09-17T14:49:41.574Z,1.73
2018-09-17T14:52:18.590Z,1.60
2018-09-17T14:55:03.595Z,1.90
2018-09-17T14:57:46.899Z,2.10
2018-09-17T15:00:27.241Z,1.77
2018-09-17T15:03:09.089Z,1.83
2018-09-17T15:05:45.671Z,2.00
2018-09-17T15:08:20.099Z,1.90
2018-09-17T15:10:54.007Z,1.97
2018-09-17T15:13:26.514Z,2.30
2018-09-17T15:16:02.130Z,2.43
2018-09-17T15:18:47.333Z,1.73
2018-09-17T15:21:21.602Z,2.87
2018-09-17T15:23:57.616Z,2.60
2018-09-17T15:26:31.799Z,1.93
2018-09-17T15:29:07.184Z,1.97
2018-09-17T15:31:40.436Z,1.90
2018-09-17T15:34:16.035Z,1.77
2018-09-17T15:36:50.721Z,1.90
2018-09-17T15:39:25.077Z,1.90
2018-09-17T15:41:59.621Z,1.60
2018-09-17T15:44:34.657Z,2.00
2018-09-17T15:47:07.492Z,1.83
2018-09-17T15:49:45.715Z,1.80
2018-09-17T15:52:21.159Z,1.97
2018-09-17T15:54:53.631Z,1.60
2018-09-17T15:57:26.519Z,2.07
2018-09-17T15:59:59.807Z,2.17
2018-09-17T16:02:32.380Z,2.00
2018-09-17T16:05:06.804Z,1.90
2018-09-17T16:07:47.935Z,2.03
2018-09-17T16:10:21.570Z,1.73
2018-09-17T16:12:58.060Z,1.90
2018-09-17T16:15:32.806Z,2.10
2018-09-17T16:18:09.504Z,1.67
2018-09-17T16:20:45.969Z,2.00
2018-09-17T16:23:20.670Z,1.93
2018-09-17T16:25:55.729Z,1.77
2018-09-17T16:28:29.303Z,2.10
2018-09-17T16:31:03.433Z,2.13
2018-09-17T16:33:37.994Z,2.30
2018-09-17T16:36:11.968Z,2.17
2018-09-17T16:38:45.855Z,2.03
2018-09-17T16:41:22.487Z,2.23
2018-09-17T16:43:55.896Z,2.57
2018-09-17T16:46:31.501Z,2.30
2018-09-17T16:49:08.592Z,2.45
2018-09-17T16:51:42.864Z,2.20
2018-09-17T16:54:16.460Z,2.10
2018-09-17T16:56:50.764Z,1.90
2018-09-17T16:59:24.943Z,1.70
2018-09-17T17:01:58.758Z,2.40
2018-09-17T17:04:37.297Z,2.07
2018-09-17T17:07:10.105Z,2.13
2018-09-17T17:09:51.524Z,2.10
2018-09-17T17:12:25.901Z,1.70
2018-09-17T17:15:04.236Z,1.93
2018-09-17T17:17:41.931Z,2.10
2018-09-17T17:20:17.713Z,2.30
2018-09-17T17:22:52.706Z,2.60
2018-09-17T17:25:27.327Z,2.40
2018-09-17T17:28:03.937Z,2.50
2018-09-17T17:30:38.612Z,2.67
2018-09-17T17:33:14.275Z,2.73
2018-09-17T17:35:50.323Z,2.72
2018-09-17T17:38:24.884Z,2.45
2018-09-17T17:40:58.536Z,2.80
2018-09-17T17:43:32.189Z,2.97
2018-09-17T17:46:04.886Z,2.53
2018-09-17T17:48:40.024Z,2.60
2018-09-17T17:51:19.736Z,2.20
2018-09-17T17:53:59.452Z,2.70
2018-09-17T17:56:33.988Z,2.57
2018-09-17T17:59:07.724Z,2.40
2018-09-17T18:01:43.362Z,2.60
2018-09-17T18:04:16.069Z,2.50
2018-09-17T18:06:54.594Z,2.50
2018-09-17T18:09:29.896Z,2.43
2018-09-17T18:12:03.032Z,2.57
2018-09-17T18:14:38.246Z,2.60
2018-09-17T18:17:13.306Z,2.57
2018-09-17T18:19:49.265Z,3.07
2018-09-17T18:22:22.108Z,2.60
2018-09-17T18:24:55.653Z,2.80
2018-09-17T18:27:30.461Z,2.80
2018-09-17T18:30:06.078Z,3.20
2018-09-17T18:32:40.603Z,3.23
2018-09-17T18:35:16.456Z,3.23
2018-09-17T18:37:52.452Z,2.90
2018-09-17T18:40:25.136Z,3.17
2018-09-17T18:42:58.741Z,3.53
2018-09-17T18:45:34.898Z,3.40
2018-09-17T18:48:10.270Z,3.53
2018-09-17T18:50:51.158Z,3.67
2018-09-17T18:53:26.440Z,3.50
2018-09-17T18:56:01.858Z,3.63
2018-09-17T18:58:37.218Z,2.90
2018-09-17T19:01:11.677Z,3.50
2018-09-17T19:03:49.401Z,3.10
2018-09-17T19:06:25.222Z,3.40
2018-09-17T19:08:59.027Z,3.53
2018-09-17T19:11:34.165Z,3.33
2018-09-17T19:14:15.934Z,3.00
2018-09-17T19:16:55.321Z,2.70
2018-09-17T19:19:31.321Z,3.22
2018-09-17T19:22:12.753Z,2.87
2018-09-17T19:24:47.209Z,2.73
2018-09-17T19:29:14.760Z,2.87
2018-09-17T19:31:48.748Z,2.83
2018-09-17T19:34:21.248Z,2.37
2018-09-17T19:37:13.835Z,2.80
2018-09-17T19:39:55.004Z,2.43
2018-09-17T19:42:32.134Z,2.33
2018-09-17T19:45:16.641Z,2.70
2018-09-17T19:47:53.783Z,2.70
2018-09-17T19:50:34.405Z,2.87
2018-09-17T19:53:15.462Z,2.77
2018-09-17T19:55:50.213Z,2.80
2018-09-17T19:58:31.981Z,2.57
2018-09-17T20:01:11.584Z,2.50
2018-09-17T20:03:46.330Z,2.63
2018-09-17T20:06:22.461Z,2.33
2018-09-17T20:08:56.801Z,2.10
2018-09-17T20:11:29.223Z,3.03
2018-09-17T20:14:03.652Z,2.47
2018-09-17T20:16:38.780Z,2.57
2018-09-17T20:19:12.605Z,2.83
2018-09-17T20:21:47.682Z,2.33
2018-09-17T20:24:22.649Z,2.60
2018-09-17T20:27:08.011Z,2.50
2018-09-17T20:29:42.625Z,2.93
2018-09-17T20:32:16.981Z,2.50
2018-09-17T20:34:53.027Z,2.53
2018-09-17T20:37:26.401Z,2.50
2018-09-17T20:40:01.818Z,2.50
2018-09-17T20:42:34.609Z,2.50
2018-09-17T20:45:08.275Z,2.83
2018-09-17T20:47:41.716Z,2.40
2018-09-17T20:50:14.460Z,2.60
2018-09-17T20:52:49.064Z,2.30
2018-09-17T20:57:57.484Z,2.50
2018-09-17T21:00:33.837Z,3.10
2018-09-17T21:03:15.349Z,2.87
2018-09-17T21:05:49.220Z,2.80
2018-09-17T21:08:22.787Z,2.53
2018-09-17T21:10:56.978Z,2.47
2018-09-17T21:13:31.461Z,3.30
2018-09-17T21:16:08.229Z,2.77
2018-09-17T21:18:43.099Z,2.50
2018-09-17T21:21:20.235Z,2.90
2018-09-17T21:23:54.541Z,2.47
2018-09-17T21:26:29.736Z,2.87
2018-09-17T21:29:02.852Z,2.80
2018-09-17T21:31:36.332Z,3.13
2018-09-17T21:34:09.291Z,2.90
2018-09-17T21:36:41.973Z,3.30
2018-09-17T21:39:14.936Z,3.25
2018-09-17T21:41:48.800Z,3.00
2018-09-17T21:44:22.313Z,3.40
2018-09-17T21:46:58.052Z,2.80
2018-09-17T21:49:34.601Z,3.20
2018-09-17T21:52:10.631Z,3.00
2018-09-17T21:54:51.328Z,3.47
2018-09-17T21:57:23.973Z,3.27
2018-09-17T21:59:56.494Z,3.37
2018-09-17T22:02:29.973Z,3.10
2018-09-17T22:05:03.585Z,2.80
2018-09-17T22:07:38.622Z,3.00
2018-09-17T22:10:13.149Z,3.12
2018-09-17T22:12:45.836Z,2.90
2018-09-17T22:15:18.586Z,2.87
2018-09-17T22:17:51.570Z,2.72
2018-09-17T22:20:24.332Z,2.60
2018-09-17T22:22:56.960Z,2.67
2018-09-17T22:25:29.877Z,2.60
2018-09-17T22:28:03.128Z,3.03
2018-09-17T22:30:35.640Z,2.73
2018-09-17T22:33:09.111Z,2.80
2018-09-17T22:35:41.891Z,3.00
2018-09-17T22:38:16.608Z,2.80
2018-09-17T22:40:50.332Z,2.90
2018-09-17T22:43:23.189Z,2.77
2018-09-17T22:45:56.324Z,3.37
2018-09-17T22:48:30.452Z,2.90
2018-09-17T22:51:03.296Z,2.80
2018-09-17T22:53:35.889Z,2.87
2018-09-17T22:56:09.925Z,2.83
2018-09-17T22:58:42.642Z,2.90
2018-09-17T23:01:15.203Z,3.00
2018-09-17T23:03:49.400Z,3.00
2018-09-17T23:06:22.061Z,2.53
2018-09-17T23:08:54.911Z,3.28
2018-09-17T23:11:29.102Z,2.87
2018-09-17T23:14:01.804Z,2.77
2018-09-17T23:16:35.020Z,3.20
2018-09-17T23:19:09.997Z,2.90
2018-09-17T23:21:42.645Z,3.00
2018-09-17T23:24:16.245Z,3.03
2018-09-17T23:26:50.153Z,3.20
2018-09-17T23:29:27.196Z,2.57
2018-09-17T23:31:59.664Z,2.83
2018-09-17T23:34:32.693Z,3.20
2018-09-17T23:37:08.380Z,2.93
2018-09-17T23:39:41.304Z,3.03
2018-09-17T23:42:14.262Z,3.53
2018-09-17T23:44:47.064Z,2.83
2018-09-17T23:47:19.627Z,3.10
2018-09-17T23:49:54.117Z,3.03
2018-09-17T23:52:26.695Z,3.00
2018-09-17T23:54:59.449Z,3.10
2018-09-17T23:57:32.408Z,3.23
